M. Luther — WDC7372 — position and weather

sailwx.info

Track history (hours):
 
Tides and Currents Weather Stations Pressure Air Temp Water Temp Dewpoint Dewpoint Depression Visibility Wind Speed Wind Dir Waves Ship Positions

M. Luther

Owner: Salmon Bay Barge Line, Inc., Seattle, WA. More information available from US FCC via Universal Licensing System and Coast Guard Vessel Documentation Center.

Last reported at 2016-Sep-25 12:33 UTC. Time now 2016-Sep-25 14:05 UTC.
Position N 49°09' W 123°00'.

Length 28 m; draft 4.1 m.

Type: Tow > 200 m length. MMSI: 367070410.

Date/timePositionNaut miles runAvg speedWind from/ knotsBaromVisibWave heightAir tempDewpointWater temp
2016-Sep-25 12:33N 49°09' W 123°00'0 0.0
2016-Sep-25 11:33N 49°09' W 123°00'0 0.0
2016-Sep-25 10:33N 49°09' W 123°00'0 0.0
2016-Sep-25 09:33N 49°09' W 123°00'0 0.0
2016-Sep-25 07:33N 49°09' W 123°00'0 0.0
2016-Sep-25 04:33N 49°09' W 123°00'0 0.0
2016-Sep-25 00:33N 49°09' W 123°00'0 0.0
2016-Sep-24 22:33N 49°09' W 123°00'0 0.0
2016-Sep-24 21:33N 49°09' W 123°00'0 0.0
2016-Sep-24 19:33N 49°09' W 123°00'0 0.0
2016-Sep-24 18:33N 49°09' W 123°00'0 0.0
2016-Sep-24 17:33N 49°09' W 123°00'0 0.0
2016-Sep-24 16:33N 49°09' W 123°00'2 0.9
2016-Sep-24 14:33N 49°09' W 123°03'8 4.1
2016-Sep-24 12:33N 49°07' W 123°15'7 3.5
2016-Sep-24 10:33N 49°00' W 123°13'7 7.0
2016-Sep-24 09:33N 48°56' W 123°05'40 6.6
2016-Sep-24 03:32N 48°18' W 122°47'7 6.6
2016-Sep-24 02:25N 48°11' W 122°45'7 7.7
2016-Sep-24 01:33N 48°06' W 122°38'9 8.7
2016-Sep-24 00:33N 47°58' W 122°33'  
2016-Sep-20 02:33N 47°44' W 122°27'24 7.8
2016-Sep-19 23:32N 48°06' W 122°40'33 8.3
2016-Sep-19 19:33N 48°39' W 122°44'8 8.1
2016-Sep-19 18:33N 48°46' W 122°51'15 7.5
2016-Sep-19 16:33N 48°55' W 123°09'13 6.5
2016-Sep-19 14:33N 49°06' W 123°19'4 4.5
2016-Sep-19 13:33N 49°08' W 123°12'5 4.7
2016-Sep-19 12:33N 49°07' W 123°05'4 4.0
2016-Sep-19 11:33N 49°09' W 123°00'0 0.0
2016-Sep-19 09:33N 49°09' W 123°00'0 0.0
2016-Sep-19 07:33N 49°09' W 123°00'0 0.0
2016-Sep-19 06:33N 49°09' W 123°00'0 0.0
2016-Sep-19 03:33N 49°09' W 123°00'0 0.0
2016-Sep-19 02:33N 49°09' W 123°00'0 0.0
2016-Sep-19 00:33N 49°09' W 123°00'0 0.0
2016-Sep-18 19:33N 49°09' W 123°00'0 0.0
2016-Sep-18 15:33N 49°09' W 123°00'0 0.0
2016-Sep-18 14:33N 49°09' W 123°00'0 0.0
2016-Sep-18 10:33N 49°09' W 123°00'0 0.0
2016-Sep-18 09:33N 49°09' W 123°00'0 0.0
2016-Sep-18 02:27N 49°09' W 123°00'0 0.0
2016-Sep-18 01:33N 49°09' W 123°00'0 0.0
2016-Sep-18 00:33N 49°09' W 123°00'0 0.0
2016-Sep-17 22:32N 49°09' W 123°00'0 0.0
2016-Sep-17 21:32N 49°09' W 123°00'0 0.0
2016-Sep-17 20:26N 49°09' W 123°00'0 0.0
2016-Sep-17 18:38N 49°09' W 123°00'0 0.0
2016-Sep-17 13:32N 49°09' W 123°00'0 0.0
2016-Sep-17 12:32N 49°09' W 123°00'0 0.0
2016-Sep-17 10:26N 49°09' W 123°00'0 0.0
2016-Sep-17 09:26N 49°09' W 123°00'0 0.0
2016-Sep-17 08:26N 49°09' W 123°00'0 0.0
2016-Sep-17 07:32N 49°09' W 123°00'0 0.0
2016-Sep-17 05:08N 49°09' W 123°00'0 0.0
2016-Sep-17 04:33N 49°09' W 123°00'0 0.0
2016-Sep-17 00:32N 49°09' W 123°00'0 0.0
2016-Sep-16 17:32N 49°09' W 123°00'0 0.0
2016-Sep-16 15:32N 49°09' W 123°00'5 1.6
2016-Sep-16 12:33N 49°07' W 123°07'8 2.8
2016-Sep-16 09:33N 48°59' W 123°11'16 7.6
2016-Sep-16 07:27N 48°48' W 122°52'22 5.6
2016-Sep-16 03:33N 48°27' W 122°44'8 7.4
2016-Sep-16 02:31N 48°20' W 122°45'15 7.3
2016-Sep-16 00:30N 48°06' W 122°39'13 6.7
2016-Sep-15 22:33N 47°55' W 122°28'8 7.7
2016-Sep-15 21:33N 47°47' W 122°26'8 7.7
2016-Sep-15 20:33N 47°40' W 122°27'8 3.8
2016-Sep-15 18:30N 47°33' W 122°21'  
Track history (hours):
 
Tides and Currents Weather Stations Pressure Air Temp Water Temp Dewpoint Dewpoint Depression Visibility Wind Speed Wind Dir Waves Ship Positions

M. Luther

Owner: Salmon Bay Barge Line, Inc., Seattle, WA. More information available from US FCC via Universal Licensing System and Coast Guard Vessel Documentation Center.

Last reported at 2016-Sep-25 12:33 UTC. Time now 2016-Sep-25 14:05 UTC.
Position N 49°09' W 123°00'.

Length 28 m; draft 4.1 m.

Type: Tow > 200 m length. MMSI: 367070410.

Date/timePositionNaut miles runAvg speedWind from/ knotsBaromVisibWave heightAir tempDewpointWater temp
2016-Sep-25 12:33N 49°09' W 123°00'0 0.0
2016-Sep-25 11:33N 49°09' W 123°00'0 0.0
2016-Sep-25 10:33N 49°09' W 123°00'0 0.0
2016-Sep-25 09:33N 49°09' W 123°00'0 0.0
2016-Sep-25 07:33N 49°09' W 123°00'0 0.0
2016-Sep-25 04:33N 49°09' W 123°00'0 0.0
2016-Sep-25 00:33N 49°09' W 123°00'0 0.0
2016-Sep-24 22:33N 49°09' W 123°00'0 0.0
2016-Sep-24 21:33N 49°09' W 123°00'0 0.0
2016-Sep-24 19:33N 49°09' W 123°00'0 0.0
2016-Sep-24 18:33N 49°09' W 123°00'0 0.0
2016-Sep-24 17:33N 49°09' W 123°00'0 0.0
2016-Sep-24 16:33N 49°09' W 123°00'2 0.9
2016-Sep-24 14:33N 49°09' W 123°03'8 4.1
2016-Sep-24 12:33N 49°07' W 123°15'7 3.5
2016-Sep-24 10:33N 49°00' W 123°13'7 7.0
2016-Sep-24 09:33N 48°56' W 123°05'40 6.6
2016-Sep-24 03:32N 48°18' W 122°47'7 6.6
2016-Sep-24 02:25N 48°11' W 122°45'7 7.7
2016-Sep-24 01:33N 48°06' W 122°38'9 8.7
2016-Sep-24 00:33N 47°58' W 122°33'  
2016-Sep-20 02:33N 47°44' W 122°27'24 7.8
2016-Sep-19 23:32N 48°06' W 122°40'33 8.3
2016-Sep-19 19:33N 48°39' W 122°44'8 8.1
2016-Sep-19 18:33N 48°46' W 122°51'15 7.5
2016-Sep-19 16:33N 48°55' W 123°09'13 6.5
2016-Sep-19 14:33N 49°06' W 123°19'4 4.5
2016-Sep-19 13:33N 49°08' W 123°12'5 4.7
2016-Sep-19 12:33N 49°07' W 123°05'4 4.0
2016-Sep-19 11:33N 49°09' W 123°00'0 0.0
2016-Sep-19 09:33N 49°09' W 123°00'0 0.0
2016-Sep-19 07:33N 49°09' W 123°00'0 0.0
2016-Sep-19 06:33N 49°09' W 123°00'0 0.0
2016-Sep-19 03:33N 49°09' W 123°00'0 0.0
2016-Sep-19 02:33N 49°09' W 123°00'0 0.0
2016-Sep-19 00:33N 49°09' W 123°00'0 0.0
2016-Sep-18 19:33N 49°09' W 123°00'0 0.0
2016-Sep-18 15:33N 49°09' W 123°00'0 0.0
2016-Sep-18 14:33N 49°09' W 123°00'0 0.0
2016-Sep-18 10:33N 49°09' W 123°00'0 0.0
2016-Sep-18 09:33N 49°09' W 123°00'0 0.0
2016-Sep-18 02:27N 49°09' W 123°00'0 0.0
2016-Sep-18 01:33N 49°09' W 123°00'0 0.0
2016-Sep-18 00:33N 49°09' W 123°00'0 0.0
2016-Sep-17 22:32N 49°09' W 123°00'0 0.0
2016-Sep-17 21:32N 49°09' W 123°00'0 0.0
2016-Sep-17 20:26N 49°09' W 123°00'0 0.0
2016-Sep-17 18:38N 49°09' W 123°00'0 0.0
2016-Sep-17 13:32N 49°09' W 123°00'0 0.0
2016-Sep-17 12:32N 49°09' W 123°00'0 0.0
2016-Sep-17 10:26N 49°09' W 123°00'0 0.0
2016-Sep-17 09:26N 49°09' W 123°00'0 0.0
2016-Sep-17 08:26N 49°09' W 123°00'0 0.0
2016-Sep-17 07:32N 49°09' W 123°00'0 0.0
2016-Sep-17 05:08N 49°09' W 123°00'0 0.0
2016-Sep-17 04:33N 49°09' W 123°00'0 0.0
2016-Sep-17 00:32N 49°09' W 123°00'0 0.0
2016-Sep-16 17:32N 49°09' W 123°00'0 0.0
2016-Sep-16 15:32N 49°09' W 123°00'5 1.6
2016-Sep-16 12:33N 49°07' W 123°07'8 2.8
2016-Sep-16 09:33N 48°59' W 123°11'16 7.6
2016-Sep-16 07:27N 48°48' W 122°52'22 5.6
2016-Sep-16 03:33N 48°27' W 122°44'8 7.4
2016-Sep-16 02:31N 48°20' W 122°45'15 7.3
2016-Sep-16 00:30N 48°06' W 122°39'13 6.7
2016-Sep-15 22:33N 47°55' W 122°28'8 7.7
2016-Sep-15 21:33N 47°47' W 122°26'8 7.7
2016-Sep-15 20:33N 47°40' W 122°27'8 3.8
2016-Sep-15 18:30N 47°33' W 122°21'  

Dump ship's entire track history